South Range, Wisconsin
Current Conditions -  °F | °C
As of 9:55 PM on Friday 24 Oct 2014 (Local Time) from KSUW Reporting Station
Clear Clear  
Wind Chill: 58°   Ceiling: Unl
Heat Index: 58°   Visibility: 10mi
Dew Point: 51°   Wind: 10mph
Humidity: 77%   Direction: 230°SW
Pressure: 29.75"   Gusts: NA
Location:  46.61°N, 91.98°W
Report Text: KSUW 250255Z AUTO 23009KT 10SM CLR 14/11 A2975 RMK AO2 T01440105
Loading
Personal Weather Stations






























Interactive Weather Map
Tropical Storm Tracking
New forecast layout! Learn more

10-Day Weather Forecast

Advertisements
Track Severe Weather on mobile